Map

Track Data

SID SEASON NUMBER BASIN SUBBASIN NAME ISO_TIME NATURE LAT LON WMO_WIND WMO_PRES WMO_AGENCY TRACK_TYPE DIST2LAND LANDFALL IFLAG USA_AGENCY USA_ATCF_ID USA_LAT USA_LON USA_RECORD USA_STATUS USA_WIND USA_PRES USA_SSHS USA_R34_NE USA_R34_SE USA_R34_SW USA_R34_NW USA_R50_NE USA_R50_SE USA_R50_SW USA_R50_NW USA_R64_NE USA_R64_SE USA_R64_SW USA_R64_NW USA_POCI USA_ROCI USA_RMW USA_EYE TOKYO_LAT TOKYO_LON TOKYO_GRADE TOKYO_WIND TOKYO_PRES TOKYO_R50_DIR TOKYO_R50_LONG TOKYO_R50_SHORT TOKYO_R30_DIR TOKYO_R30_LONG TOKYO_R30_SHORT TOKYO_LAND CMA_LAT CMA_LON CMA_CAT CMA_WIND CMA_PRES HKO_LAT HKO_LON HKO_CAT HKO_WIND HKO_PRES NEWDELHI_LAT NEWDELHI_LON NEWDELHI_GRADE NEWDELHI_WIND NEWDELHI_PRES NEWDELHI_CI NEWDELHI_DP NEWDELHI_POCI REUNION_LAT REUNION_LON REUNION_TYPE REUNION_WIND REUNION_PRES REUNION_TNUM REUNION_CI REUNION_RMW REUNION_R34_NE REUNION_R34_SE REUNION_R34_SW REUNION_R34_NW REUNION_R50_NE REUNION_R50_SE REUNION_R50_SW REUNION_R50_NW REUNION_R64_NE REUNION_R64_SE REUNION_R64_SW REUNION_R64_NW BOM_LAT BOM_LON BOM_TYPE BOM_WIND BOM_PRES BOM_TNUM BOM_CI BOM_RMW BOM_R34_NE BOM_R34_SE BOM_R34_SW BOM_R34_NW BOM_R50_NE BOM_R50_SE BOM_R50_SW BOM_R50_NW BOM_R64_NE BOM_R64_SE BOM_R64_SW BOM_R64_NW BOM_ROCI BOM_POCI BOM_EYE BOM_POS_METHOD BOM_PRES_METHOD NADI_LAT NADI_LON NADI_CAT NADI_WIND NADI_PRES WELLINGTON_LAT WELLINGTON_LON WELLINGTON_WIND WELLINGTON_PRES DS824_LAT DS824_LON DS824_STAGE DS824_WIND DS824_PRES TD9636_LAT TD9636_LON TD9636_STAGE TD9636_WIND TD9636_PRES TD9635_LAT TD9635_LON TD9635_WIND TD9635_PRES TD9635_ROCI NEUMANN_LAT NEUMANN_LON NEUMANN_CLASS NEUMANN_WIND NEUMANN_PRES MLC_LAT MLC_LON MLC_CLASS MLC_WIND MLC_PRES USA_GUST BOM_GUST BOM_GUST_PER REUNION_GUST REUNION_GUST_PER USA_SEAHGT USA_SEARAD_NE USA_SEARAD_SE USA_SEARAD_SW USA_SEARAD_NW STORM_SPEED STORM_DIR
1985178N10236 1985 48 EP MM ENRIQUE 1985-06-27 06:00:00 TS 9.80000 -123.800 25 hurdat_epa main 2075 2075 O_________O___ hurdat_epa EP051985 9.80000 -123.800 TD 25 -1 9.80000 -123.800 1 25 9 282
1985178N10236 1985 48 EP MM ENRIQUE 1985-06-27 09:00:00 TS 9.89219 -124.260 main 2099 2099 P_________P___ EP051985 9.89266 -124.262 TD 25 -1 9.89078 -124.254 1 25 9 283
1985178N10236 1985 48 EP MM ENRIQUE 1985-06-27 12:00:00 TS 10.0000 -124.700 25 hurdat_epa main 2116 2116 O_________O___ hurdat_epa EP051985 10.0000 -124.700 TD 25 -1 10.0000 -124.700 1 25 9 286
1985178N10236 1985 48 EP MM ENRIQUE 1985-06-27 15:00:00 TS 10.1367 -125.108 main 2134 2132 P_________P___ EP051985 10.1349 -125.100 TD 25 -1 10.1420 -125.131 1 26 9 291
1985178N10236 1985 48 EP MM ENRIQUE 1985-06-27 18:00:00 TS 10.3031 -125.513 25 hurdat_epa main 2145 2143 O_________P___ hurdat_epa EP051985 10.3000 -125.500 TD 25 -1 10.3122 -125.554 1 27 9 294
1985178N10236 1985 48 EP MM ENRIQUE 1985-06-27 21:00:00 TS 10.5003 -125.950 main 2163 2162 P_________P___ EP051985 10.5000 -125.942 TD 27 -1 10.5013 -125.974 1 28 10 294
1985178N10236 1985 48 EP MM ENRIQUE 1985-06-28 00:00:00 TS 10.7000 -126.400 30 hurdat_epa main 2175 2174 O_________O___ hurdat_epa EP051985 10.7000 -126.400 TD 30 -1 10.7000 -126.400 1 30 10 292
1985178N10236 1985 48 EP MM ENRIQUE 1985-06-28 03:00:00 TS 10.8540 -126.849 main 2188 2188 P_________P___ EP051985 10.8424 -126.850 TD 30 -1 10.8886 -126.847 1 30 9 290
1985178N10236 1985 48 EP MM ENRIQUE 1985-06-28 06:00:00 TS 11.0212 -127.300 30 hurdat_epa main 2217 2217 O_________P___ hurdat_epa EP051985 11.0000 -127.300 TD 30 -1 11.0849 -127.300 1 30 10 294
1985178N10236 1985 48 EP MM ENRIQUE 1985-06-28 09:00:00 TS 11.2540 -127.756 main 2232 2232 P_________P___ EP051985 11.2425 -127.757 TD 30 -1 11.2886 -127.753 1 30 10 298
1985178N10236 1985 48 EP MM ENRIQUE 1985-06-28 12:00:00 TS 11.5000 -128.200 30 hurdat_epa main 2248 2248 O_________O___ hurdat_epa EP051985 11.5000 -128.200 TD 30 -1 11.5000 -128.200 1 30 9 299
1985178N10236 1985 48 EP MM ENRIQUE 1985-06-28 15:00:00 TS 11.7053 -128.604 main 2264 2264 P_________P___ EP051985 11.6999 -128.600 TD 30 -1 11.7215 -128.616 1 31 9 298
1985178N10236 1985 48 EP MM ENRIQUE 1985-06-28 18:00:00 TS 11.9123 -129.007 30 hurdat_epa main 2281 2281 O_________P___ hurdat_epa EP051985 11.9000 -129.000 TD 30 -1 11.9494 -129.028 1 32 9 298
1985178N10236 1985 48 EP MM ENRIQUE 1985-06-28 21:00:00 TS 12.1456 -129.433 main 2299 2296 P_________P___ EP051985 12.1349 -129.428 TD 32 -1 12.1776 -129.451 1 33 10 299
1985178N10236 1985 48 EP MM ENRIQUE 1985-06-29 00:00:00 TS 12.4000 -129.900 35 hurdat_epa main 2308 2306 O_________O___ hurdat_epa EP051985 12.4000 -129.900 TS 35 0 12.4000 -129.900 2 35 11 299
1985178N10236 1985 48 EP MM ENRIQUE 1985-06-29 03:00:00 TS 12.6957 -130.432 main 2318 2318 P_________P___ EP051985 12.7225 -130.442 TS 35 0 12.6153 -130.400 2 35 12 298
1985178N10236 1985 48 EP MM ENRIQUE 1985-06-29 06:00:00 TS 12.9556 -130.982 35 hurdat_epa main 2336 2336 O_________P___ hurdat_epa EP051985 13.0000 -131.000 TS 35 0 12.8225 -130.928 2 35 11 291
1985178N10236 1985 48 EP MM ENRIQUE 1985-06-29 09:00:00 TS 13.0907 -131.497 main 2365 2365 P_________P___ EP051985 13.1149 -131.508 TS 35 0 13.0184 -131.466 2 35 10 284
1985178N10236 1985 48 EP MM ENRIQUE 1985-06-29 12:00:00 TS 13.2000 -132.000 35 hurdat_epa main 2395 2395 O_________O___ hurdat_epa EP051985 13.2000 -132.000 TS 35 0 13.2000 -132.000 2 35 10 287
1985178N10236 1985 48 EP MM ENRIQUE 1985-06-29 15:00:00 TS 13.3950 -132.502 main 2418 2413 P_________P___ EP051985 13.3999 -132.500 TS 35 0 13.3803 -132.507 2 33 11 292
1985178N10236 1985 48 EP MM ENRIQUE 1985-06-29 18:00:00 TS 13.5861 -133.002 35 hurdat_epa main 2413 2359 O_________P___ hurdat_epa EP051985 13.6000 -133.000 TS 35 0 13.5445 -133.008 2 32 10 288
1985178N10236 1985 48 EP MM ENRIQUE 1985-06-29 21:00:00 TS 13.7078 -133.501 main 2359 2304 P_________P___ EP051985 13.7149 -133.500 TS 32 -1 13.6865 -133.504 2 31 10 282
1985178N10236 1985 48 EP MM ENRIQUE 1985-06-30 00:00:00 TS 13.8000 -134.000 30 hurdat_epa main 2304 2249 O_________O___ hurdat_epa EP051985 13.8000 -134.000 TD 30 -1 13.8000 -134.000 1 30 10 282
1985178N10236 1985 48 EP MM ENRIQUE 1985-06-30 03:00:00 TS 13.9058 -134.502 main 2249 2194 P_________P___ EP051985 13.9149 -134.500 TD 30 -1 13.8786 -134.508 1 28 10 281
1985178N10236 1985 48 EP MM ENRIQUE 1985-06-30 06:00:00 TS 13.9824 -135.004 30 hurdat_epa main 2194 2143 O_________P___ hurdat_epa EP051985 14.0000 -135.000 TD 30 -1 13.9298 -135.015 1 27 10 275
1985178N10236 1985 48 EP MM ENRIQUE 1985-06-30 09:00:00 TS 13.9971 -135.509 main 2143 2093 P_________P___ EP051985 14.0074 -135.508 TD 27 -1 13.9661 -135.515 1 26 10 271
1985178N10236 1985 48 EP MM ENRIQUE 1985-06-30 12:00:00 TS 14.0000 -136.000 25 hurdat_epa main 2093 2052 O_________O___ hurdat_epa EP051985 14.0000 -136.000 TD 25 -1 14.0000 -136.000 1 25 9 273
1985178N10236 1985 48 EP MM ENRIQUE 1985-06-30 15:00:00 TS 14.0442 -136.460 main 2042 1997 P_________P___ EP051985 14.0424 -136.457 TD 25 -1 14.0497 -136.468 1 25 9 276
1985178N10236 1985 48 EP MM ENRIQUE 1985-06-30 18:00:00 TS 14.0999 -136.906 25 hurdat_epa main 1997 1957 O_________P___ hurdat_epa EP051985 14.1000 -136.900 TD 25 -1 14.0996 -136.923 1 25 9 277
1985178N10236 1985 48 EP MM ENRIQUE 1985-06-30 21:00:00 TS 14.1499 -137.354 main 1947 1903 P_________P___ EP051985 14.1499 -137.350 TD 25 -1 14.1497 -137.365 1 25 9 277
1985178N10236 1985 48 EP MM ENRIQUE 1985-07-01 00:00:00 TS 14.2000 -137.800 25 hurdat_epa main 1903 1862 O_________O___ hurdat_epa EP051985 14.2000 -137.800 TD 25 -1 14.2000 -137.800 1 25 9 277
1985178N10236 1985 48 EP MM ENRIQUE 1985-07-01 03:00:00 TS 14.2498 -138.243 main 1862 1808 P_________P___ EP051985 14.2500 -138.258 TD 25 -1 14.2493 -138.200 1 25 9 277
1985178N10236 1985 48 EP MM ENRIQUE 1985-07-01 06:00:00 TS 14.2997 -138.674 25 hurdat_epa main 1808 1778 O_________P___ hurdat_epa EP051985 14.3000 -138.700 TD 25 -1 14.2989 -138.598 1 25 8 277
1985178N10236 1985 48 EP MM ENRIQUE 1985-07-01 09:00:00 TS 14.3495 -139.052 main 1768 1723 P_________P___ EP051985 14.3496 -139.063 TD 25 -1 14.3491 -139.022 1 25 8 277
1985178N10236 1985 48 EP MM ENRIQUE 1985-07-01 12:00:00 TS 14.3941 -139.512 25 hurdat_epa main 1723 1663 O_________O___ hurdat_epa EP051985 14.4000 -139.500 TD 25 -1 14.4000 -139.500 1 25 11 275
1985178N10236 1985 48 EP CP ENRIQUE 1985-07-01 15:00:00 TS 14.4393 -140.182 main 1653 1589 P_________P___ EP051985 14.4503 -140.177 TD 25 -1 14.4506 -140.096 1 25 13 274
1985178N10236 1985 48 EP CP ENRIQUE 1985-07-01 18:00:00 TS 14.4844 -140.883 25 hurdat_epa main 1579 1530 O_________P___ hurdat_epa EP051985 14.5000 -140.900 TD 25 -1 14.5009 -140.742 1 25 13 274
1985178N10236 1985 48 EP CP ENRIQUE 1985-07-01 21:00:00 TS 14.5300 -141.480 main 1520 1466 P_________P___ EP051985 14.5498 -141.495 TD 25 -1 14.5506 -141.393 1 25 11 275
1985178N10236 1985 48 EP CP ENRIQUE 1985-07-02 00:00:00 TS 14.5800 -142.000 25 hurdat_epa main 1466 1427 O_________O___ hurdat_epa EP051985 14.6000 -142.000 TD 25 -1 14.6000 -142.000 1 25 9 276
1985178N10236 1985 48 EP CP ENRIQUE 1985-07-02 03:00:00 TS 14.6280 -142.443 main 1427 1383 P_________P___ EP051985 14.6497 -142.408 TD 25 -1 14.6409 -142.492 1 25 8 277
1985178N10236 1985 48 EP CP ENRIQUE 1985-07-02 06:00:00 TS 14.6768 -142.868 25 hurdat_epa main 1373 1334 O_________P___ hurdat_epa EP051985 14.7000 -142.800 TD 25 -1 14.6838 -142.938 1 25 9 277
1985178N10236 1985 48 EP CP ENRIQUE 1985-07-02 09:00:00 TS 14.7269 -143.339 main 1334 1281 P_________P___ EP051985 14.7499 -143.278 TD 25 -1 14.7348 -143.364 1 25 9 276
1985178N10236 1985 48 EP CP ENRIQUE 1985-07-02 12:00:00 TS 14.7800 -143.840 25 hurdat_epa main 1281 1233 O_________O___ hurdat_epa EP051985 14.8000 -143.800 TD 25 -1 14.8000 -143.800 1 25 10 276
1985178N10236 1985 48 EP CP ENRIQUE 1985-07-02 15:00:00 TS 14.8281 -144.376 main 1223 1170 P_________P___ EP051985 14.8350 -144.358 TD 25 -1 14.8857 -144.302 1 25 10 276
1985178N10236 1985 48 EP CP ENRIQUE 1985-07-02 18:00:00 TS 14.8970 -144.903 25 hurdat_epa main 1170 1117 O_________P___ hurdat_epa EP051985 14.9000 -144.900 TD 25 -1 14.9851 -144.815 1 25 10 281
1985178N10236 1985 48 EP CP ENRIQUE 1985-07-02 21:00:00 TS 15.0108 -145.379 main 1117 1074 P_________P___ EP051985 15.0424 -145.372 TD 25 -1 15.0920 -145.321 1 25 9 285
1985178N10236 1985 48 EP CP ENRIQUE 1985-07-03 00:00:00 TS 15.1400 -145.820 25 hurdat_epa main 1074 1031 O_________O___ hurdat_epa EP051985 15.2000 -145.800 TD 25 -1 15.2000 -145.800 1 25 9 286
1985178N10236 1985 48 EP CP ENRIQUE 1985-07-03 03:00:00 TS 15.2490 -146.236 main 1031 983 P_________P___ EP051985 15.3074 -146.208 TD 25 -1 15.2953 -146.217 1 25 8 285
1985178N10236 1985 48 EP CP ENRIQUE 1985-07-03 06:00:00 TS 15.3583 -146.642 25 hurdat_epa main 983 940 O_________P___ hurdat_epa EP051985 15.4000 -146.600 TD 25 -1 15.3916 -146.608 1 25 8 286
1985178N10236 1985 48 EP CP ENRIQUE 1985-07-03 09:00:00 TS 15.4694 -147.056 main 931 888 P_________P___ EP051985 15.4849 -146.993 TD 25 -1 15.4922 -146.995 1 25 8 287
1985178N10236 1985 48 EP CP ENRIQUE 1985-07-03 12:00:00 TS 15.6000 -147.480 25 hurdat_epa main 888 840 O_________O___ hurdat_epa EP051985 15.6000 -147.400 TD 25 -1 15.6000 -147.400 1 25 9 292
1985178N10236 1985 48 EP CP ENRIQUE 1985-07-03 15:00:00 TS 15.7954 -147.913 main 840 791 P_________P___ EP051985 15.8074 -147.835 TD 25 -1 15.7826 -147.844 1 25 9 294
1985178N10236 1985 48 EP CP ENRIQUE 1985-07-03 18:00:00 TS 15.9724 -148.362 25 hurdat_epa main 782 740 O_________P___ hurdat_epa EP051985 16.0000 -148.300 TD 25 -1 15.9621 -148.311 1 25 9 288
1985178N10236 1985 48 EP CP ENRIQUE 1985-07-03 21:00:00 TS 16.0851 -148.836 main 740 695 P_________P___ EP051985 16.1174 -148.792 TD 25 -1 16.0856 -148.797 1 25 9 277
1985178N10236 1985 48 EP CP ENRIQUE 1985-07-04 00:00:00 TS 16.0800 -149.320 25 hurdat_epa main 695 665 O_________O___ hurdat_epa EP051985 16.1000 -149.300 TD 25 -1 16.1000 -149.300 1 25 9 260
1985178N10236 1985 48 EP CP ENRIQUE 1985-07-04 03:00:00 TS 15.9199 -149.792 main 665 646 P_________P___ EP051985 15.9023 -149.793 TD 25 -1 15.9400 -149.824 1 25 10 245
1985178N10236 1985 48 EP CP ENRIQUE 1985-07-04 06:00:00 TS 15.6540 -150.272 25 hurdat_epa main 638 623 O_________P___ hurdat_epa EP051985 15.6000 -150.300 TD 25 -1 15.6700 -150.359 1 25 11 239
1985178N10236 1985 48 EP CP ENRIQUE 1985-07-04 09:00:00 TS 15.3555 -150.782 main 623 612 P_________P___ EP051985 15.3001 -150.865 TD 25 -1 15.3400 -150.889 1 25 12 238
1985178N10236 1985 48 EP CP ENRIQUE 1985-07-04 12:00:00 TS 15.0400 -151.280 25 hurdat_epa main 621 610 O_________O___ hurdat_epa EP051985 15.0000 -151.400 TD 25 -1 15.0000 -151.400 1 25 11 236
1985178N10236 1985 48 EP CP ENRIQUE 1985-07-04 15:00:00 TS 14.7644 -151.700 main 613 611 P_________P___ EP051985 14.7497 -151.807 TD 25 -1 14.7158 -151.830 1 25 10 236
1985178N10236 1985 48 EP CP ENRIQUE 1985-07-04 18:00:00 TS 14.4867 -152.129 25 hurdat_epa main 619 614 O_________P___ hurdat_epa EP051985 14.5000 -152.200 TD 25 -1 14.4334 -152.247 1 25 11 237
1985178N10236 1985 48 EP CP ENRIQUE 1985-07-04 21:00:00 TS 14.1847 -152.625 main 621 615 P_________P___ EP051985 14.2073 -152.655 TD 25 -1 14.1594 -152.690 1 25 12 240
1985178N10236 1985 48 EP CP ENRIQUE 1985-07-05 00:00:00 TS 13.8800 -153.200 25 hurdat_epa main 619 619 O_________O___ hurdat_epa EP051985 13.9000 -153.200 TD 25 -1 13.9000 -153.200 1 25 14 243
1985178N10236 1985 48 EP CP ENRIQUE 1985-07-05 03:00:00 TS 13.5724 -153.867 main 623 623 P_________P___ EP051985 13.5775 -153.870 TD 25 -1 13.6672 -153.832 1 25 15 247
1985178N10236 1985 48 EP CP ENRIQUE 1985-07-05 06:00:00 TS 13.3094 -154.586 25 hurdat_epa main 637 634 O_________P___ hurdat_epa EP051985 13.3000 -154.600 TD 25 -1 13.4470 -154.532 1 25 15 253
1985178N10236 1985 48 EP CP ENRIQUE 1985-07-05 09:00:00 TS 13.1435 -155.304 main 650 649 P_________P___ EP051985 13.1423 -155.300 TD 25 -1 13.2281 -155.266 1 25 14 258
1985178N10236 1985 48 EP CP ENRIQUE 1985-07-05 12:00:00 TS 13.0000 -156.020 25 hurdat_epa main 661 661 O_________O___ hurdat_epa EP051985 13.0000 -156.000 TD 25 -1 13.0000 -156.000 1 25 14 256
1985178N10236 1985 48 EP CP ENRIQUE 1985-07-05 15:00:00 TS 12.8078 -156.717 main 691 691 P_________P___ EP051985 12.7779 -156.700 TD 25 -1 12.7553 -156.709 1 25 14 253
1985178N10236 1985 48 EP CP ENRIQUE 1985-07-05 18:00:00 TS 12.5800 -157.400 25 hurdat_epa main 728 O_________O___ hurdat_epa EP051985 12.5000 -157.400 TD 25 -1 12.5000 -157.400 1 25 14 251

About IBTrACS Database

This database is a web-friendly format of International Best Track Archive for Climate Stewardship (IBTrACS), a global best track data archive curated by NOAA dating back to 1842.

Updated: 2021-12-01